sensor_id;sensor_type;location;lat;lon;timestamp;pressure;altitude;pressure_sealevel;temperature;humidity
62655;BME280;48717;55.556;37.816;2023-06-04T00:02:24;99619.06;;;5.54;90.90
62655;BME280;48717;55.556;37.816;2023-06-04T00:04:52;99605.81;;;5.45;91.44
62655;BME280;48717;55.556;37.816;2023-06-04T00:07:19;99617.25;;;5.48;91.48
62655;BME280;48717;55.556;37.816;2023-06-04T00:09:46;99583.63;;;5.19;91.73
62655;BME280;48717;55.556;37.816;2023-06-04T00:12:14;99623.91;;;5.31;91.98
62655;BME280;48717;55.556;37.816;2023-06-04T00:14:42;99623.03;;;5.30;92.21
62655;BME280;48717;55.556;37.816;2023-06-04T00:17:09;99607.09;;;5.15;92.42
62655;BME280;48717;55.556;37.816;2023-06-04T00:19:38;99610.53;;;5.14;93.04
62655;BME280;48717;55.556;37.816;2023-06-04T00:22:07;99604.44;;;5.13;92.88
62655;BME280;48717;55.556;37.816;2023-06-04T00:24:36;99633.22;;;5.15;92.92
62655;BME280;48717;55.556;37.816;2023-06-04T00:27:04;99634.91;;;5.13;93.48
62655;BME280;48717;55.556;37.816;2023-06-04T00:29:32;99633.91;;;5.04;93.54
62655;BME280;48717;55.556;37.816;2023-06-04T00:31:59;99635.69;;;5.07;93.43
62655;BME280;48717;55.556;37.816;2023-06-04T00:34:26;99630.22;;;4.94;93.41
62655;BME280;48717;55.556;37.816;2023-06-04T00:36:54;99639.97;;;5.03;93.78
62655;BME280;48717;55.556;37.816;2023-06-04T00:39:21;99648.66;;;5.01;94.00
62655;BME280;48717;55.556;37.816;2023-06-04T00:41:48;99617.78;;;4.81;94.22
62655;BME280;48717;55.556;37.816;2023-06-04T00:44:16;99646.81;;;4.96;94.63
62655;BME280;48717;55.556;37.816;2023-06-04T00:46:44;99621.25;;;4.80;94.29
62655;BME280;48717;55.556;37.816;2023-06-04T00:49:12;99620.28;;;4.75;94.21
62655;BME280;48717;55.556;37.816;2023-06-04T00:51:39;99647.63;;;4.92;94.59
62655;BME280;48717;55.556;37.816;2023-06-04T00:54:07;99636.91;;;4.80;94.63
62655;BME280;48717;55.556;37.816;2023-06-04T00:56:37;99602.72;;;4.67;94.73
62655;BME280;48717;55.556;37.816;2023-06-04T00:59:07;99653.63;;;4.88;95.27
62655;BME280;48717;55.556;37.816;2023-06-04T01:01:42;99641.22;;;4.76;94.96
62655;BME280;48717;55.556;37.816;2023-06-04T01:04:23;99619.19;;;4.63;95.05
62655;BME280;48717;55.556;37.816;2023-06-04T01:06:56;99661.38;;;4.82;95.32
62655;BME280;48717;55.556;37.816;2023-06-04T01:09:28;99660.34;;;4.77;95.20
62655;BME280;48717;55.556;37.816;2023-06-04T01:11:56;99657.72;;;4.74;94.69
62655;BME280;48717;55.556;37.816;2023-06-04T01:14:28;99650.84;;;4.79;95.15
62655;BME280;48717;55.556;37.816;2023-06-04T01:16:59;99626.94;;;4.59;94.92
62655;BME280;48717;55.556;37.816;2023-06-04T01:22:12;99648.91;;;4.68;94.57
62655;BME280;48717;55.556;37.816;2023-06-04T01:24:46;99640.06;;;4.63;94.24
62655;BME280;48717;55.556;37.816;2023-06-04T01:27:14;99659.34;;;4.68;94.25
62655;BME280;48717;55.556;37.816;2023-06-04T01:29:42;99673.38;;;4.74;94.39
62655;BME280;48717;55.556;37.816;2023-06-04T01:32:11;99683.09;;;4.81;94.18
62655;BME280;48717;55.556;37.816;2023-06-04T01:34:46;99671.66;;;4.76;93.73
62655;BME280;48717;55.556;37.816;2023-06-04T01:37:13;99676.16;;;4.81;93.16
62655;BME280;48717;55.556;37.816;2023-06-04T01:39:40;99648.94;;;4.72;93.24
62655;BME280;48717;55.556;37.816;2023-06-04T01:42:08;99685.94;;;4.93;93.67
62655;BME280;48717;55.556;37.816;2023-06-04T01:44:36;99671.91;;;4.88;93.72
62655;BME280;48717;55.556;37.816;2023-06-04T01:47:04;99643.63;;;4.65;94.06
62655;BME280;48717;55.556;37.816;2023-06-04T01:49:31;99689.34;;;4.89;93.57
62655;BME280;48717;55.556;37.816;2023-06-04T01:51:58;99683.13;;;4.82;93.31
62655;BME280;48717;55.556;37.816;2023-06-04T01:54:26;99695.53;;;4.94;92.56
62655;BME280;48717;55.556;37.816;2023-06-04T01:56:53;99690.31;;;4.94;92.99
62655;BME280;48717;55.556;37.816;2023-06-04T01:59:20;99678.72;;;4.80;92.83
62655;BME280;48717;55.556;37.816;2023-06-04T02:01:48;99713.16;;;5.03;91.36
62655;BME280;48717;55.556;37.816;2023-06-04T02:04:15;99708.00;;;5.06;90.30
62655;BME280;48717;55.556;37.816;2023-06-04T02:06:42;99708.22;;;5.17;89.32
62655;BME280;48717;55.556;37.816;2023-06-04T02:09:09;99693.25;;;5.10;89.00
62655;BME280;48717;55.556;37.816;2023-06-04T02:11:36;99710.84;;;5.20;89.09
62655;BME280;48717;55.556;37.816;2023-06-04T02:14:03;99700.28;;;5.14;88.72
62655;BME280;48717;55.556;37.816;2023-06-04T02:16:30;99702.19;;;5.21;88.08
62655;BME280;48717;55.556;37.816;2023-06-04T02:18:59;99710.03;;;5.23;87.73
62655;BME280;48717;55.556;37.816;2023-06-04T02:21:27;99720.72;;;5.35;87.19
62655;BME280;48717;55.556;37.816;2023-06-04T02:23:54;99696.09;;;5.22;86.55
62655;BME280;48717;55.556;37.816;2023-06-04T02:26:21;99707.66;;;5.35;86.51
62655;BME280;48717;55.556;37.816;2023-06-04T02:28:50;99732.25;;;5.45;86.35
62655;BME280;48717;55.556;37.816;2023-06-04T02:31:17;99712.91;;;5.37;85.82
62655;BME280;48717;55.556;37.816;2023-06-04T02:33:44;99689.22;;;5.28;86.08
62655;BME280;48717;55.556;37.816;2023-06-04T02:36:12;99735.81;;;5.51;86.35
62655;BME280;48717;55.556;37.816;2023-06-04T02:38:39;99736.75;;;5.53;86.05
62655;BME280;48717;55.556;37.816;2023-06-04T02:41:06;99721.78;;;5.45;85.90
62655;BME280;48717;55.556;37.816;2023-06-04T02:43:34;99711.22;;;5.41;85.74
62655;BME280;48717;55.556;37.816;2023-06-04T02:46:01;99748.28;;;5.64;85.99
62655;BME280;48717;55.556;37.816;2023-06-04T02:48:28;99737.63;;;5.55;85.39
62655;BME280;48717;55.556;37.816;2023-06-04T02:50:56;99733.28;;;5.54;85.56
62655;BME280;48717;55.556;37.816;2023-06-04T02:53:23;99766.81;;;5.77;85.42
62655;BME280;48717;55.556;37.816;2023-06-04T02:55:50;99764.25;;;5.80;85.97
62655;BME280;48717;55.556;37.816;2023-06-04T02:58:18;99768.56;;;5.78;85.57
62655;BME280;48717;55.556;37.816;2023-06-04T03:00:52;99750.22;;;5.76;85.76
62655;BME280;48717;55.556;37.816;2023-06-04T03:03:19;99787.97;;;5.89;85.16
62655;BME280;48717;55.556;37.816;2023-06-04T03:05:47;99781.03;;;5.93;85.69
62655;BME280;48717;55.556;37.816;2023-06-04T03:08:14;99783.75;;;5.97;85.44
62655;BME280;48717;55.556;37.816;2023-06-04T03:10:42;99785.50;;;5.98;84.68
62655;BME280;48717;55.556;37.816;2023-06-04T03:13:09;99785.63;;;6.05;84.96
62655;BME280;48717;55.556;37.816;2023-06-04T03:15:36;99748.75;;;5.91;84.74
62655;BME280;48717;55.556;37.816;2023-06-04T03:18:06;99768.16;;;6.04;84.44
62655;BME280;48717;55.556;37.816;2023-06-04T03:20:33;99781.44;;;6.14;84.50
62655;BME280;48717;55.556;37.816;2023-06-04T03:23:05;99799.03;;;6.23;84.95
62655;BME280;48717;55.556;37.816;2023-06-04T03:25:32;99785.84;;;6.17;83.85
62655;BME280;48717;55.556;37.816;2023-06-04T03:28:00;99799.09;;;6.28;83.68
62655;BME280;48717;55.556;37.816;2023-06-04T03:30:27;99814.13;;;6.40;83.38
62655;BME280;48717;55.556;37.816;2023-06-04T03:32:58;99801.88;;;6.37;83.88
62655;BME280;48717;55.556;37.816;2023-06-04T03:35:25;99816.88;;;6.46;83.42
62655;BME280;48717;55.556;37.816;2023-06-04T03:37:52;99824.00;;;6.57;82.88
62655;BME280;48717;55.556;37.816;2023-06-04T03:40:19;99823.13;;;6.58;82.94
62655;BME280;48717;55.556;37.816;2023-06-04T03:42:47;99835.56;;;6.71;83.17
62655;BME280;48717;55.556;37.816;2023-06-04T03:45:16;99832.13;;;6.75;83.40
62655;BME280;48717;55.556;37.816;2023-06-04T03:47:45;99812.97;;;6.79;83.10
62655;BME280;48717;55.556;37.816;2023-06-04T03:50:13;99806.00;;;6.80;82.45
62655;BME280;48717;55.556;37.816;2023-06-04T03:52:41;99844.78;;;7.04;81.50
62655;BME280;48717;55.556;37.816;2023-06-04T03:55:08;99828.22;;;7.07;81.71
62655;BME280;48717;55.556;37.816;2023-06-04T03:57:36;99836.28;;;7.24;82.42
62655;BME280;48717;55.556;37.816;2023-06-04T04:00:09;99819.63;;;7.19;81.67
62655;BME280;48717;55.556;37.816;2023-06-04T04:02:41;99815.34;;;7.27;80.97
62655;BME280;48717;55.556;37.816;2023-06-04T04:05:17;99839.13;;;7.43;79.82
62655;BME280;48717;55.556;37.816;2023-06-04T04:07:46;99838.28;;;7.42;78.29
62655;BME280;48717;55.556;37.816;2023-06-04T04:10:17;99847.16;;;7.52;78.78
62655;BME280;48717;55.556;37.816;2023-06-04T04:12:46;99829.63;;;7.51;79.06
62655;BME280;48717;55.556;37.816;2023-06-04T04:15:13;99849.91;;;7.66;77.38
62655;BME280;48717;55.556;37.816;2023-06-04T04:17:42;99816.53;;;7.53;76.79
62655;BME280;48717;55.556;37.816;2023-06-04T04:20:10;99838.59;;;7.72;76.46
62655;BME280;48717;55.556;37.816;2023-06-04T04:22:45;99835.16;;;7.76;76.74
62655;BME280;48717;55.556;37.816;2023-06-04T04:25:14;99833.41;;;7.75;76.46
62655;BME280;48717;55.556;37.816;2023-06-04T04:27:41;99851.03;;;7.92;75.89
62655;BME280;48717;55.556;37.816;2023-06-04T04:30:11;99859.88;;;7.97;75.32
62655;BME280;48717;55.556;37.816;2023-06-04T04:32:42;99857.28;;;8.02;75.17
62655;BME280;48717;55.556;37.816;2023-06-04T04:35:22;99854.75;;;8.13;74.61
62655;BME280;48717;55.556;37.816;2023-06-04T04:37:53;99832.00;;;8.12;74.40
62655;BME280;48717;55.556;37.816;2023-06-04T04:40:24;99835.53;;;8.17;75.21
62655;BME280;48717;55.556;37.816;2023-06-04T04:42:53;99863.72;;;8.33;74.94
62655;BME280;48717;55.556;37.816;2023-06-04T04:45:20;99857.63;;;8.38;74.80
62655;BME280;48717;55.556;37.816;2023-06-04T04:47:50;99853.28;;;8.43;75.18
62655;BME280;48717;55.556;37.816;2023-06-04T04:50:18;99860.50;;;8.67;74.57
62655;BME280;48717;55.556;37.816;2023-06-04T04:52:45;99871.16;;;8.87;73.54
62655;BME280;48717;55.556;37.816;2023-06-04T04:55:13;99868.69;;;9.09;72.66
62655;BME280;48717;55.556;37.816;2023-06-04T04:57:45;99853.00;;;9.36;71.21
62655;BME280;48717;55.556;37.816;2023-06-04T05:00:13;99862.78;;;9.66;68.83
62655;BME280;48717;55.556;37.816;2023-06-04T05:02:44;99869.88;;;9.89;67.33
62655;BME280;48717;55.556;37.816;2023-06-04T05:05:12;99860.28;;;10.12;66.26
62655;BME280;48717;55.556;37.816;2023-06-04T05:07:40;99864.69;;;10.14;65.76
62655;BME280;48717;55.556;37.816;2023-06-04T05:10:08;99859.41;;;10.39;64.85
62655;BME280;48717;55.556;37.816;2023-06-04T05:12:36;99869.97;;;10.80;65.80
62655;BME280;48717;55.556;37.816;2023-06-04T05:15:06;99867.31;;;11.05;62.33
62655;BME280;48717;55.556;37.816;2023-06-04T05:17:33;99866.22;;;11.65;60.72
62655;BME280;48717;55.556;37.816;2023-06-04T05:20:07;99872.97;;;12.22;59.61
62655;BME280;48717;55.556;37.816;2023-06-04T05:22:42;99869.22;;;12.55;58.08
62655;BME280;48717;55.556;37.816;2023-06-04T05:25:14;99870.03;;;12.63;57.07
62655;BME280;48717;55.556;37.816;2023-06-04T05:27:42;99867.59;;;12.35;57.26
62655;BME280;48717;55.556;37.816;2023-06-04T05:30:11;99834.84;;;12.51;57.38
62655;BME280;48717;55.556;37.816;2023-06-04T05:32:39;99868.66;;;13.11;55.90
62655;BME280;48717;55.556;37.816;2023-06-04T05:35:12;99832.72;;;12.88;53.54
62655;BME280;48717;55.556;37.816;2023-06-04T05:37:41;99870.34;;;13.18;53.08
62655;BME280;48717;55.556;37.816;2023-06-04T05:40:10;99860.44;;;13.37;52.96
62655;BME280;48717;55.556;37.816;2023-06-04T05:42:38;99866.75;;;13.25;54.19
62655;BME280;48717;55.556;37.816;2023-06-04T05:45:07;99861.81;;;13.71;52.18
62655;BME280;48717;55.556;37.816;2023-06-04T05:47:36;99873.59;;;13.48;48.35
62655;BME280;48717;55.556;37.816;2023-06-04T05:50:04;99885.41;;;13.14;50.51
62655;BME280;48717;55.556;37.816;2023-06-04T05:52:34;99847.22;;;13.36;50.94
62655;BME280;48717;55.556;37.816;2023-06-04T05:55:05;99850.19;;;13.81;48.20
62655;BME280;48717;55.556;37.816;2023-06-04T05:57:37;99873.59;;;14.13;49.22
62655;BME280;48717;55.556;37.816;2023-06-04T06:00:04;99860.44;;;14.06;48.82
62655;BME280;48717;55.556;37.816;2023-06-04T06:02:41;99863.41;;;14.43;48.01
62655;BME280;48717;55.556;37.816;2023-06-04T06:05:20;99876.00;;;14.85;46.72
62655;BME280;48717;55.556;37.816;2023-06-04T06:07:48;99849.44;;;14.88;45.95
62655;BME280;48717;55.556;37.816;2023-06-04T06:10:15;99884.81;;;14.30;46.95
62655;BME280;48717;55.556;37.816;2023-06-04T06:12:43;99876.66;;;13.84;48.62
62655;BME280;48717;55.556;37.816;2023-06-04T06:15:10;99827.38;;;12.96;49.93
62655;BME280;48717;55.556;37.816;2023-06-04T06:17:39;99887.50;;;13.66;51.33
62655;BME280;48717;55.556;37.816;2023-06-04T06:20:07;99885.16;;;14.08;49.62
62655;BME280;48717;55.556;37.816;2023-06-04T06:22:35;99872.09;;;14.54;48.64
62655;BME280;48717;55.556;37.816;2023-06-04T06:25:05;99875.38;;;14.69;46.79
62655;BME280;48717;55.556;37.816;2023-06-04T06:27:41;99886.38;;;14.44;48.49
62655;BME280;48717;55.556;37.816;2023-06-04T06:30:11;99859.81;;;13.89;47.41
62655;BME280;48717;55.556;37.816;2023-06-04T06:32:39;99886.00;;;14.10;47.02
62655;BME280;48717;55.556;37.816;2023-06-04T06:35:06;99883.63;;;15.05;45.77
62655;BME280;48717;55.556;37.816;2023-06-04T06:37:34;99876.69;;;15.44;42.17
62655;BME280;48717;55.556;37.816;2023-06-04T06:40:02;99873.38;;;14.83;43.82
62655;BME280;48717;55.556;37.816;2023-06-04T06:42:34;99858.13;;;14.43;43.81
62655;BME280;48717;55.556;37.816;2023-06-04T06:45:02;99873.69;;;15.15;42.46
62655;BME280;48717;55.556;37.816;2023-06-04T06:47:31;99874.94;;;15.85;43.18
62655;BME280;48717;55.556;37.816;2023-06-04T06:49:59;99887.22;;;15.48;42.83
62655;BME280;48717;55.556;37.816;2023-06-04T06:52:26;99855.72;;;14.81;43.87
62655;BME280;48717;55.556;37.816;2023-06-04T06:54:53;99873.34;;;14.86;44.25
62655;BME280;48717;55.556;37.816;2023-06-04T06:57:20;99881.38;;;15.31;41.77
62655;BME280;48717;55.556;37.816;2023-06-04T06:59:47;99849.94;;;15.09;42.41
62655;BME280;48717;55.556;37.816;2023-06-04T07:02:15;99880.81;;;14.62;44.88
62655;BME280;48717;55.556;37.816;2023-06-04T07:04:42;99877.31;;;14.57;44.32
62655;BME280;48717;55.556;37.816;2023-06-04T07:07:09;99878.22;;;15.11;42.47
62655;BME280;48717;55.556;37.816;2023-06-04T07:09:36;99893.38;;;15.95;43.41
62655;BME280;48717;55.556;37.816;2023-06-04T07:12:03;99892.44;;;15.07;43.27
62655;BME280;48717;55.556;37.816;2023-06-04T07:14:31;99895.88;;;14.59;44.73
62655;BME280;48717;55.556;37.816;2023-06-04T07:16:58;99908.19;;;14.63;43.75
62655;BME280;48717;55.556;37.816;2023-06-04T07:19:25;99911.97;;;13.87;44.73
62655;BME280;48717;55.556;37.816;2023-06-04T07:21:54;99908.44;;;13.84;44.56
62655;BME280;48717;55.556;37.816;2023-06-04T07:24:22;99896.91;;;14.50;43.06
62655;BME280;48717;55.556;37.816;2023-06-04T07:26:49;99886.16;;;15.57;42.07
62655;BME280;48717;55.556;37.816;2023-06-04T07:29:17;99885.88;;;15.71;39.88
62655;BME280;48717;55.556;37.816;2023-06-04T07:31:44;99878.38;;;15.02;40.86
62655;BME280;48717;55.556;37.816;2023-06-04T07:34:12;99890.38;;;14.70;41.03
62655;BME280;48717;55.556;37.816;2023-06-04T07:36:39;99885.69;;;14.87;41.24
62655;BME280;48717;55.556;37.816;2023-06-04T07:39:07;99874.75;;;15.06;41.21
62655;BME280;48717;55.556;37.816;2023-06-04T07:41:34;99901.16;;;15.16;41.44
62655;BME280;48717;55.556;37.816;2023-06-04T07:44:01;99897.44;;;15.23;41.54
62655;BME280;48717;55.556;37.816;2023-06-04T07:46:28;99901.13;;;15.61;40.34
62655;BME280;48717;55.556;37.816;2023-06-04T07:48:56;99894.25;;;16.35;37.80
62655;BME280;48717;55.556;37.816;2023-06-04T07:51:23;99882.41;;;16.10;38.09
62655;BME280;48717;55.556;37.816;2023-06-04T07:53:50;99893.47;;;16.31;38.03
62655;BME280;48717;55.556;37.816;2023-06-04T07:56:17;99881.88;;;17.05;37.69
62655;BME280;48717;55.556;37.816;2023-06-04T07:58:44;99880.97;;;17.39;36.68
62655;BME280;48717;55.556;37.816;2023-06-04T08:01:13;99875.31;;;17.82;36.30
62655;BME280;48717;55.556;37.816;2023-06-04T08:03:41;99883.16;;;17.86;35.74
62655;BME280;48717;55.556;37.816;2023-06-04T08:06:09;99888.00;;;17.73;35.63
62655;BME280;48717;55.556;37.816;2023-06-04T08:08:36;99876.56;;;17.98;35.81
62655;BME280;48717;55.556;37.816;2023-06-04T08:11:04;99895.41;;;18.51;35.74
62655;BME280;48717;55.556;37.816;2023-06-04T08:13:31;99853.34;;;18.85;34.21
62655;BME280;48717;55.556;37.816;2023-06-04T08:15:58;99865.25;;;18.47;34.82
62655;BME280;48717;55.556;37.816;2023-06-04T08:18:45;99883.66;;;17.69;34.06
62655;BME280;48717;55.556;37.816;2023-06-04T08:21:27;99892.69;;;17.32;34.21
62655;BME280;48717;55.556;37.816;2023-06-04T08:24:01;99898.00;;;17.95;31.74
62655;BME280;48717;55.556;37.816;2023-06-04T08:26:49;99897.69;;;17.44;32.53
62655;BME280;48717;55.556;37.816;2023-06-04T08:29:26;99892.03;;;17.23;33.76
62655;BME280;48717;55.556;37.816;2023-06-04T08:32:13;99882.16;;;16.57;32.73
62655;BME280;48717;55.556;37.816;2023-06-04T08:34:51;99897.63;;;16.78;31.56
62655;BME280;48717;55.556;37.816;2023-06-04T08:37:19;99906.88;;;17.34;30.33
62655;BME280;48717;55.556;37.816;2023-06-04T08:39:46;99895.03;;;17.44;29.57
62655;BME280;48717;55.556;37.816;2023-06-04T08:42:29;99878.88;;;17.17;31.28
62655;BME280;48717;55.556;37.816;2023-06-04T08:44:58;99895.13;;;17.08;31.48
62655;BME280;48717;55.556;37.816;2023-06-04T08:47:25;99885.63;;;16.61;32.92
62655;BME280;48717;55.556;37.816;2023-06-04T08:49:55;99885.22;;;16.04;34.95
62655;BME280;48717;55.556;37.816;2023-06-04T08:52:26;99899.97;;;15.75;33.84
62655;BME280;48717;55.556;37.816;2023-06-04T08:54:54;99902.28;;;15.48;34.80
62655;BME280;48717;55.556;37.816;2023-06-04T08:57:21;99884.41;;;15.56;33.96
62655;BME280;48717;55.556;37.816;2023-06-04T08:59:49;99895.75;;;16.47;34.96
62655;BME280;48717;55.556;37.816;2023-06-04T09:02:17;99892.44;;;17.73;32.35
62655;BME280;48717;55.556;37.816;2023-06-04T09:04:45;99893.16;;;17.15;30.90
62655;BME280;48717;55.556;37.816;2023-06-04T09:07:13;99906.84;;;15.85;33.76
62655;BME280;48717;55.556;37.816;2023-06-04T09:09:44;99911.50;;;15.28;35.02
62655;BME280;48717;55.556;37.816;2023-06-04T09:12:24;99907.09;;;14.75;36.17
62655;BME280;48717;55.556;37.816;2023-06-04T09:14:52;99907.75;;;14.34;36.98
62655;BME280;48717;55.556;37.816;2023-06-04T09:17:23;99910.69;;;14.16;37.57
62655;BME280;48717;55.556;37.816;2023-06-04T09:19:51;99895.81;;;14.05;37.97
62655;BME280;48717;55.556;37.816;2023-06-04T09:22:18;99925.88;;;14.04;38.61
62655;BME280;48717;55.556;37.816;2023-06-04T09:24:47;99901.28;;;13.93;37.96
62655;BME280;48717;55.556;37.816;2023-06-04T09:27:20;99914.94;;;14.26;38.53
62655;BME280;48717;55.556;37.816;2023-06-04T09:29:54;99887.38;;;13.75;38.03
62655;BME280;48717;55.556;37.816;2023-06-04T09:32:31;99923.25;;;14.01;36.08
62655;BME280;48717;55.556;37.816;2023-06-04T09:35:13;99920.44;;;14.14;36.66
62655;BME280;48717;55.556;37.816;2023-06-04T09:37:42;99920.91;;;14.99;35.77
62655;BME280;48717;55.556;37.816;2023-06-04T09:40:10;99884.25;;;15.20;35.28
62655;BME280;48717;55.556;37.816;2023-06-04T09:42:48;99914.31;;;16.10;33.51
62655;BME280;48717;55.556;37.816;2023-06-04T09:45:33;99902.75;;;16.11;36.14
62655;BME280;48717;55.556;37.816;2023-06-04T09:48:02;99913.28;;;16.17;33.67
62655;BME280;48717;55.556;37.816;2023-06-04T09:50:34;99919.50;;;15.74;34.68
62655;BME280;48717;55.556;37.816;2023-06-04T09:53:13;99912.31;;;15.33;34.41
62655;BME280;48717;55.556;37.816;2023-06-04T09:55:42;99913.28;;;14.80;34.75
62655;BME280;48717;55.556;37.816;2023-06-04T09:58:11;99911.94;;;14.51;34.82
62655;BME280;48717;55.556;37.816;2023-06-04T10:00:39;99913.53;;;14.61;36.08
62655;BME280;48717;55.556;37.816;2023-06-04T10:03:11;99924.84;;;14.76;35.83
62655;BME280;48717;55.556;37.816;2023-06-04T10:05:42;99892.72;;;14.35;36.49
62655;BME280;48717;55.556;37.816;2023-06-04T10:08:12;99894.09;;;14.59;37.71
62655;BME280;48717;55.556;37.816;2023-06-04T10:10:42;99896.91;;;15.04;35.22
62655;BME280;48717;55.556;37.816;2023-06-04T10:13:16;99920.13;;;15.43;36.04
62655;BME280;48717;55.556;37.816;2023-06-04T10:15:46;99899.72;;;15.43;34.63
62655;BME280;48717;55.556;37.816;2023-06-04T10:18:15;99911.81;;;15.60;36.71
62655;BME280;48717;55.556;37.816;2023-06-04T10:20:43;99909.66;;;16.22;35.51
62655;BME280;48717;55.556;37.816;2023-06-04T10:23:11;99893.84;;;16.88;33.82
62655;BME280;48717;55.556;37.816;2023-06-04T10:25:39;99904.25;;;16.98;33.31
62655;BME280;48717;55.556;37.816;2023-06-04T10:28:07;99892.25;;;16.81;32.14
62655;BME280;48717;55.556;37.816;2023-06-04T10:30:35;99893.59;;;16.25;33.66
62655;BME280;48717;55.556;37.816;2023-06-04T10:33:03;99914.09;;;15.77;33.17
62655;BME280;48717;55.556;37.816;2023-06-04T10:35:31;99910.59;;;15.75;34.11
62655;BME280;48717;55.556;37.816;2023-06-04T10:38:10;99897.31;;;16.17;31.91
62655;BME280;48717;55.556;37.816;2023-06-04T10:40:38;99903.88;;;16.02;33.60
62655;BME280;48717;55.556;37.816;2023-06-04T10:43:12;99895.78;;;15.64;32.22
62655;BME280;48717;55.556;37.816;2023-06-04T10:45:40;99900.13;;;15.69;32.69
62655;BME280;48717;55.556;37.816;2023-06-04T10:48:09;99904.94;;;15.90;31.81
62655;BME280;48717;55.556;37.816;2023-06-04T10:50:57;99853.13;;;16.12;30.86
62655;BME280;48717;55.556;37.816;2023-06-04T10:53:24;99893.28;;;17.10;31.52
62655;BME280;48717;55.556;37.816;2023-06-04T10:55:51;99903.22;;;17.98;29.84
62655;BME280;48717;55.556;37.816;2023-06-04T10:58:19;99876.38;;;18.35;28.48
62655;BME280;48717;55.556;37.816;2023-06-04T11:00:47;99873.88;;;18.29;26.91
62655;BME280;48717;55.556;37.816;2023-06-04T11:03:19;99881.03;;;18.28;27.73
62655;BME280;48717;55.556;37.816;2023-06-04T11:05:47;99888.88;;;18.87;29.02
62655;BME280;48717;55.556;37.816;2023-06-04T11:08:15;99896.00;;;18.32;28.48
62655;BME280;48717;55.556;37.816;2023-06-04T11:10:53;99884.44;;;17.41;28.35
62655;BME280;48717;55.556;37.816;2023-06-04T11:13:24;99864.50;;;16.55;30.71
62655;BME280;48717;55.556;37.816;2023-06-04T11:15:52;99893.88;;;16.12;31.77
62655;BME280;48717;55.556;37.816;2023-06-04T11:18:22;99915.28;;;16.06;32.84
62655;BME280;48717;55.556;37.816;2023-06-04T11:20:59;99884.97;;;15.72;33.11
62655;BME280;48717;55.556;37.816;2023-06-04T11:23:26;99891.97;;;15.32;32.23
62655;BME280;48717;55.556;37.816;2023-06-04T11:25:53;99908.38;;;15.07;34.76
62655;BME280;48717;55.556;37.816;2023-06-04T11:28:21;99906.69;;;15.03;34.97
62655;BME280;48717;55.556;37.816;2023-06-04T11:31:01;99905.69;;;15.09;35.68
62655;BME280;48717;55.556;37.816;2023-06-04T11:33:40;99881.88;;;15.04;35.52
62655;BME280;48717;55.556;37.816;2023-06-04T11:36:08;99907.78;;;15.38;35.44
62655;BME280;48717;55.556;37.816;2023-06-04T11:38:35;99901.50;;;15.44;34.33
62655;BME280;48717;55.556;37.816;2023-06-04T11:41:03;99901.88;;;15.68;34.25
62655;BME280;48717;55.556;37.816;2023-06-04T11:43:32;99875.53;;;15.57;34.16
62655;BME280;48717;55.556;37.816;2023-06-04T11:46:05;99905.56;;;15.61;33.99
62655;BME280;48717;55.556;37.816;2023-06-04T11:48:40;99893.78;;;15.30;34.89
62655;BME280;48717;55.556;37.816;2023-06-04T11:51:12;99907.22;;;15.22;35.16
62655;BME280;48717;55.556;37.816;2023-06-04T11:53:39;99928.28;;;15.32;32.70
62655;BME280;48717;55.556;37.816;2023-06-04T11:56:11;99913.66;;;16.40;32.21
62655;BME280;48717;55.556;37.816;2023-06-04T11:58:42;99903.06;;;18.05;30.77
62655;BME280;48717;55.556;37.816;2023-06-04T12:01:12;99863.75;;;18.67;29.00
62655;BME280;48717;55.556;37.816;2023-06-04T12:03:41;99910.66;;;18.19;29.63
62655;BME280;48717;55.556;37.816;2023-06-04T12:06:19;99916.66;;;17.65;30.55
62655;BME280;48717;55.556;37.816;2023-06-04T12:08:55;99916.59;;;17.02;30.86
62655;BME280;48717;55.556;37.816;2023-06-04T12:13:57;99913.94;;;15.86;34.26
62655;BME280;48717;55.556;37.816;2023-06-04T12:16:25;99921.25;;;15.75;32.97
62655;BME280;48717;55.556;37.816;2023-06-04T12:19:12;99925.41;;;15.44;33.88
62655;BME280;48717;55.556;37.816;2023-06-04T12:21:39;99911.50;;;15.28;33.93
62655;BME280;48717;55.556;37.816;2023-06-04T12:24:13;99919.16;;;14.98;35.21
62655;BME280;48717;55.556;37.816;2023-06-04T12:26:41;99925.59;;;14.84;34.68
62655;BME280;48717;55.556;37.816;2023-06-04T12:29:13;99900.94;;;14.74;34.13
62655;BME280;48717;55.556;37.816;2023-06-04T12:31:42;99918.22;;;15.00;34.19
62655;BME280;48717;55.556;37.816;2023-06-04T12:34:10;99920.56;;;15.19;34.11
62655;BME280;48717;55.556;37.816;2023-06-04T12:36:38;99916.59;;;15.40;33.33
62655;BME280;48717;55.556;37.816;2023-06-04T12:39:06;99929.78;;;15.89;32.82
62655;BME280;48717;55.556;37.816;2023-06-04T12:41:34;99915.97;;;15.72;34.06
62655;BME280;48717;55.556;37.816;2023-06-04T12:44:01;99925.31;;;15.49;34.23
62655;BME280;48717;55.556;37.816;2023-06-04T12:46:29;99925.50;;;14.89;34.43
62655;BME280;48717;55.556;37.816;2023-06-04T12:48:57;99897.00;;;14.44;34.96
62655;BME280;48717;55.556;37.816;2023-06-04T12:51:24;99930.22;;;14.68;36.35
62655;BME280;48717;55.556;37.816;2023-06-04T12:53:52;99912.53;;;14.69;36.57
62655;BME280;48717;55.556;37.816;2023-06-04T12:56:21;99928.41;;;14.73;35.39
62655;BME280;48717;55.556;37.816;2023-06-04T12:58:48;99879.28;;;14.46;35.55
62655;BME280;48717;55.556;37.816;2023-06-04T13:01:16;99920.63;;;14.61;36.31
62655;BME280;48717;55.556;37.816;2023-06-04T13:03:46;99914.47;;;14.57;35.90
62655;BME280;48717;55.556;37.816;2023-06-04T13:06:14;99919.34;;;14.88;35.17
62655;BME280;48717;55.556;37.816;2023-06-04T13:08:42;99892.72;;;14.92;34.90
62655;BME280;48717;55.556;37.816;2023-06-04T13:11:10;99921.13;;;15.35;35.73